createdAt,value
2023-04-28T00:00:05.250Z,99319.84
2023-04-28T00:02:33.653Z,99318.32
2023-04-28T00:05:00.463Z,99317.62
2023-04-28T00:07:27.224Z,99318.52
2023-04-28T00:09:54.368Z,99316.40
2023-04-28T00:12:21.084Z,99320.17
2023-04-28T00:14:47.812Z,99322.39
2023-04-28T00:17:14.628Z,99321.38
2023-04-28T00:19:41.603Z,99322.94
2023-04-28T00:22:09.033Z,99325.98
2023-04-28T00:24:36.090Z,99333.70
2023-04-28T00:27:03.145Z,99336.60
2023-04-28T00:29:30.209Z,99338.48
2023-04-28T00:31:57.060Z,99345.58
2023-04-28T00:34:24.007Z,99349.02
2023-04-28T00:36:50.972Z,99353.75
2023-04-28T00:39:18.058Z,99351.01
2023-04-28T00:41:44.827Z,99352.05
2023-04-28T00:44:11.727Z,99360.29
2023-04-28T00:46:38.533Z,99363.48
2023-04-28T00:49:05.692Z,99367.70
2023-04-28T00:51:33.166Z,99373.97
2023-04-28T00:53:59.953Z,99369.85
2023-04-28T00:56:27.922Z,99367.57
2023-04-28T00:58:54.819Z,99374.27
2023-04-28T01:01:22.069Z,99377.88
2023-04-28T01:03:49.212Z,99378.71
2023-04-28T01:06:17.157Z,99374.75
2023-04-28T01:08:50.417Z,99376.98
2023-04-28T01:11:17.830Z,99380.30
2023-04-28T01:14:10.702Z,99378.77
2023-04-28T01:16:39.144Z,99377.52
2023-04-28T01:19:13.953Z,99379.56
2023-04-28T01:21:40.813Z,99377.14
2023-04-28T01:24:18.733Z,99376.66
2023-04-28T01:26:45.846Z,99376.08
2023-04-28T01:29:12.667Z,99375.23
2023-04-28T01:31:40.576Z,99379.02
2023-04-28T01:34:07.427Z,99378.02
2023-04-28T01:36:37.540Z,99379.03
2023-04-28T01:39:05.336Z,99377.86
2023-04-28T01:41:33.904Z,99380.35
2023-04-28T01:44:00.705Z,99378.00
2023-04-28T01:46:27.489Z,99377.42
2023-04-28T01:48:54.251Z,99379.03
2023-04-28T01:51:20.959Z,99380.17
2023-04-28T01:53:47.741Z,99380.42
2023-04-28T01:56:14.593Z,99376.09
2023-04-28T01:58:42.324Z,99371.54
2023-04-28T02:01:09.243Z,99370.90
2023-04-28T02:03:36.474Z,99368.36
2023-04-28T02:06:04.318Z,99377.08
2023-04-28T02:08:31.641Z,99384.33
2023-04-28T02:10:58.414Z,99382.64
2023-04-28T02:13:25.618Z,99385.09
2023-04-28T02:15:53.315Z,99385.60
2023-04-28T02:18:21.405Z,99389.17
2023-04-28T02:20:48.086Z,99387.63
2023-04-28T02:23:14.845Z,99384.92
2023-04-28T02:25:41.834Z,99383.81
2023-04-28T02:28:12.613Z,99384.12
2023-04-28T02:30:39.338Z,99388.95
2023-04-28T02:33:06.147Z,99390.41
2023-04-28T02:35:33.613Z,99386.75
2023-04-28T02:38:00.375Z,99385.25
2023-04-28T02:40:27.113Z,99385.09
2023-04-28T02:42:53.856Z,99390.41
2023-04-28T02:45:20.649Z,99386.34
2023-04-28T02:47:47.457Z,99385.77
2023-04-28T02:50:14.250Z,99386.74
2023-04-28T02:52:41.056Z,99387.63
2023-04-28T02:55:08.147Z,99388.33
2023-04-28T02:57:34.993Z,99390.26
2023-04-28T03:00:02.345Z,99391.23
2023-04-28T03:02:33.204Z,99397.95
2023-04-28T03:05:00.124Z,99403.58
2023-04-28T03:07:26.938Z,99407.80
2023-04-28T03:09:53.632Z,99409.50
2023-04-28T03:12:20.449Z,99409.77
2023-04-28T03:14:47.173Z,99412.97
2023-04-28T03:17:13.957Z,99415.17
2023-04-28T03:19:40.827Z,99421.23
2023-04-28T03:22:07.506Z,99426.21
2023-04-28T03:24:34.228Z,99431.23
2023-04-28T03:27:03.084Z,99429.23
2023-04-28T03:29:30.101Z,99432.98
2023-04-28T03:31:56.884Z,99437.59
2023-04-28T03:34:23.721Z,99443.31
2023-04-28T03:36:50.849Z,99440.96
2023-04-28T03:39:23.225Z,99448.58
2023-04-28T03:41:50.117Z,99448.71
2023-04-28T03:44:55.260Z,99451.27
2023-04-28T03:47:22.063Z,99454.88
2023-04-28T03:49:49.005Z,99456.55
2023-04-28T03:52:15.786Z,99462.31
2023-04-28T03:54:42.576Z,99468.79
2023-04-28T03:57:10.025Z,99475.49
2023-04-28T03:59:36.765Z,99482.60
2023-04-28T04:02:03.991Z,99489.62
2023-04-28T04:04:31.006Z,99488.76
2023-04-28T04:06:58.407Z,99492.41
2023-04-28T04:09:25.318Z,99492.13
2023-04-28T04:11:52.143Z,99496.35
2023-04-28T04:14:19.089Z,99497.79
2023-04-28T04:16:47.127Z,99503.91
2023-04-28T04:19:13.804Z,99503.79
2023-04-28T04:21:41.660Z,99503.53
2023-04-28T04:24:09.941Z,99505.55
2023-04-28T04:26:37.420Z,99507.83
2023-04-28T04:29:13.975Z,99510.73
2023-04-28T04:31:40.835Z,99512.56
2023-04-28T04:34:07.773Z,99514.45
2023-04-28T04:36:34.507Z,99517.32
2023-04-28T04:39:01.543Z,99520.70
2023-04-28T04:41:28.481Z,99521.07
2023-04-28T04:44:07.716Z,99528.52
2023-04-28T04:46:37.980Z,99522.73
2023-04-28T04:49:04.746Z,99527.05
2023-04-28T04:51:31.604Z,99528.98
2023-04-28T04:53:58.350Z,99529.56
2023-04-28T04:56:25.292Z,99533.95
2023-04-28T04:58:52.149Z,99537.17
2023-04-28T05:01:44.883Z,99540.04
2023-04-28T05:04:12.670Z,99545.15
2023-04-28T05:06:40.057Z,99542.41
2023-04-28T05:09:06.861Z,99545.51
2023-04-28T05:11:33.755Z,99546.54
2023-04-28T05:14:00.557Z,99541.60
2023-04-28T05:16:28.566Z,99545.96
2023-04-28T05:19:15.801Z,99544.23
2023-04-28T05:21:42.637Z,99544.52
2023-04-28T05:24:09.521Z,99544.42
2023-04-28T05:26:36.323Z,99550.06
2023-04-28T05:29:06.329Z,99552.15
2023-04-28T05:31:33.140Z,99553.54
2023-04-28T05:34:00.331Z,99558.89
2023-04-28T05:36:27.726Z,99562.34
2023-04-28T05:38:54.603Z,99569.09
2023-04-28T05:41:21.489Z,99571.19
2023-04-28T05:43:50.457Z,99570.16
2023-04-28T05:46:29.122Z,99568.32
2023-04-28T05:48:57.316Z,99575.45
2023-04-28T05:51:24.132Z,99578.39
2023-04-28T05:53:51.416Z,99580.42
2023-04-28T05:56:18.698Z,99579.38
2023-04-28T05:58:46.696Z,99583.91
2023-04-28T06:01:13.489Z,99578.15
2023-04-28T06:03:44.453Z,99583.50
2023-04-28T06:06:11.478Z,99576.73
2023-04-28T06:08:38.365Z,99581.87
2023-04-28T06:11:06.223Z,99581.78
2023-04-28T06:13:33.107Z,99575.05
2023-04-28T06:16:00.074Z,99576.23
2023-04-28T06:18:31.853Z,99579.19
2023-04-28T06:21:01.004Z,99580.61
2023-04-28T06:23:28.624Z,99580.05
2023-04-28T06:25:55.382Z,99585.77
2023-04-28T06:28:22.069Z,99584.20
2023-04-28T06:30:48.807Z,99584.67
2023-04-28T06:33:15.623Z,99585.11
2023-04-28T06:35:42.383Z,99585.34
2023-04-28T06:38:09.281Z,99582.86
2023-04-28T06:40:37.534Z,99592.72
2023-04-28T06:43:06.249Z,99588.77
2023-04-28T06:45:41.258Z,99591.55
2023-04-28T06:48:08.900Z,99588.52
2023-04-28T06:50:38.430Z,99590.02
2023-04-28T06:53:07.183Z,99592.86
2023-04-28T06:55:34.085Z,99594.18
2023-04-28T06:58:00.922Z,99593.25
2023-04-28T07:00:28.192Z,99601.73
2023-04-28T07:02:55.351Z,99598.30
2023-04-28T07:05:22.359Z,99594.44
2023-04-28T07:07:49.135Z,99599.56
2023-04-28T07:10:16.095Z,99606.38
2023-04-28T07:12:42.922Z,99602.31
2023-04-28T07:15:10.457Z,99602.28
2023-04-28T07:17:37.760Z,99597.41
2023-04-28T07:20:06.737Z,99602.21
2023-04-28T07:22:33.948Z,99601.30
2023-04-28T07:25:00.782Z,99606.20
2023-04-28T07:27:27.700Z,99603.13
2023-04-28T07:29:54.581Z,99606.86
2023-04-28T07:32:21.515Z,99611.14
2023-04-28T07:34:48.258Z,99613.81
2023-04-28T07:37:15.610Z,99611.94
2023-04-28T07:39:42.630Z,99615.92
2023-04-28T07:42:09.548Z,99613.84
2023-04-28T07:44:36.308Z,99608.89
2023-04-28T07:47:03.037Z,99608.37
2023-04-28T07:49:29.832Z,99606.59
2023-04-28T07:51:56.765Z,99597.13
2023-04-28T07:54:23.570Z,99605.61
2023-04-28T07:56:51.068Z,99598.04
2023-04-28T07:59:19.075Z,99601.39
2023-04-28T08:01:45.853Z,99605.91
2023-04-28T08:04:13.309Z,99602.84
2023-04-28T08:06:40.466Z,99598.92
2023-04-28T08:09:07.243Z,99594.66
2023-04-28T08:11:34.128Z,99598.59
2023-04-28T08:14:02.478Z,99589.77
2023-04-28T08:16:29.649Z,99603.67
2023-04-28T08:18:56.727Z,99606.18
2023-04-28T08:21:23.491Z,99601.29
2023-04-28T08:23:50.267Z,99600.33
2023-04-28T08:26:17.017Z,99594.80
2023-04-28T08:28:45.186Z,99596.38
2023-04-28T08:31:12.898Z,99598.59
2023-04-28T08:33:43.777Z,99600.02
2023-04-28T08:36:11.474Z,99596.13
2023-04-28T08:38:38.707Z,99604.08
2023-04-28T08:41:05.498Z,99607.83
2023-04-28T08:43:35.995Z,99608.13
2023-04-28T08:46:05.791Z,99596.29
2023-04-28T08:48:40.621Z,99596.02
2023-04-28T08:51:07.786Z,99601.45
2023-04-28T08:53:59.441Z,99608.80
2023-04-28T08:56:26.936Z,99604.91
2023-04-28T08:58:53.624Z,99615.41
2023-04-28T09:01:20.574Z,99615.31
2023-04-28T09:03:48.769Z,99620.74
2023-04-28T09:06:15.521Z,99617.45
2023-04-28T09:08:42.393Z,99614.68
2023-04-28T09:11:11.412Z,99614.90
2023-04-28T09:13:39.435Z,99611.73
2023-04-28T09:16:06.743Z,99601.10
2023-04-28T09:18:33.533Z,99597.67
2023-04-28T09:21:07.665Z,99610.90
2023-04-28T09:23:35.819Z,99606.80
2023-04-28T09:26:04.368Z,99610.41
2023-04-28T09:28:32.151Z,99608.73
2023-04-28T09:30:58.904Z,99606.42
2023-04-28T09:33:25.826Z,99607.85
2023-04-28T09:35:52.976Z,99605.43
2023-04-28T09:38:20.914Z,99606.63
2023-04-28T09:40:58.363Z,99607.06
2023-04-28T09:43:32.809Z,99609.38
2023-04-28T09:46:01.562Z,99607.75
2023-04-28T09:48:28.554Z,99610.84
2023-04-28T09:50:56.176Z,99610.42
2023-04-28T09:53:24.203Z,99607.40
2023-04-28T09:55:56.374Z,99603.14
2023-04-28T09:58:24.266Z,99599.11
2023-04-28T10:00:54.914Z,99607.77
2023-04-28T10:03:24.271Z,99606.11
2023-04-28T10:05:52.968Z,99593.39
2023-04-28T10:08:22.944Z,99597.45
2023-04-28T10:10:52.414Z,99588.80
2023-04-28T10:13:19.910Z,99588.62
2023-04-28T10:15:48.240Z,99589.88
2023-04-28T10:18:17.845Z,99594.04
2023-04-28T10:20:46.035Z,99588.39
2023-04-28T10:23:31.331Z,99595.80
2023-04-28T10:25:59.355Z,99593.52
2023-04-28T10:28:26.409Z,99592.86
2023-04-28T10:31:10.784Z,99593.88
2023-04-28T10:33:58.781Z,99595.52
2023-04-28T10:36:46.729Z,99589.42
2023-04-28T10:39:13.677Z,99591.96
2023-04-28T10:41:41.300Z,99591.30
2023-04-28T10:44:43.800Z,99591.11
2023-04-28T10:47:11.517Z,99588.89
2023-04-28T10:49:59.056Z,99598.27
2023-04-28T10:52:39.074Z,99598.75
2023-04-28T10:55:32.137Z,99596.19
2023-04-28T10:58:19.858Z,99596.95
2023-04-28T11:00:47.304Z,99601.18
2023-04-28T11:03:46.638Z,99598.21
2023-04-28T11:06:20.856Z,99602.69
2023-04-28T11:08:47.549Z,99604.23
2023-04-28T11:11:18.934Z,99597.50
2023-04-28T11:13:46.577Z,99600.23
2023-04-28T11:16:21.077Z,99598.64
2023-04-28T11:18:58.830Z,99590.03
2023-04-28T11:21:27.612Z,99585.75
2023-04-28T11:23:54.619Z,99583.84
2023-04-28T11:26:23.114Z,99589.58
2023-04-28T11:28:51.668Z,99587.64
2023-04-28T11:31:20.220Z,99587.99
2023-04-28T11:34:15.097Z,99587.55
2023-04-28T11:36:42.466Z,99583.15
2023-04-28T11:39:10.799Z,99592.96
2023-04-28T11:41:40.242Z,99591.83
2023-04-28T11:44:13.186Z,99584.00
2023-04-28T11:46:56.722Z,99582.16
2023-04-28T11:49:28.467Z,99581.52
2023-04-28T11:51:56.149Z,99581.82
2023-04-28T11:54:28.888Z,99580.73
2023-04-28T11:56:57.019Z,99583.84
2023-04-28T11:59:25.614Z,99579.39
2023-04-28T12:02:10.886Z,99576.09
2023-04-28T12:04:39.107Z,99575.62
2023-04-28T12:07:13.387Z,99574.39
2023-04-28T12:09:42.809Z,99574.84
2023-04-28T12:12:11.882Z,99574.02
2023-04-28T12:14:58.846Z,99569.91
2023-04-28T12:17:41.790Z,99560.09
2023-04-28T12:20:12.498Z,99559.60
2023-04-28T12:22:50.025Z,99566.23
2023-04-28T12:25:18.800Z,99562.51
2023-04-28T12:28:05.044Z,99558.61
2023-04-28T12:30:41.450Z,99567.23
2023-04-28T12:33:24.584Z,99566.19
2023-04-28T12:35:51.828Z,99560.41
2023-04-28T12:38:18.724Z,99561.66
2023-04-28T12:40:46.122Z,99558.59
2023-04-28T12:43:12.942Z,99551.49
2023-04-28T12:45:40.664Z,99556.64
2023-04-28T12:48:08.582Z,99558.52
2023-04-28T12:50:35.442Z,99565.00
2023-04-28T12:53:02.576Z,99555.61
2023-04-28T12:55:29.979Z,99564.11
2023-04-28T12:57:56.902Z,99570.85
2023-04-28T13:00:24.432Z,99569.02
2023-04-28T13:02:52.455Z,99566.52
2023-04-28T13:05:19.396Z,99562.69
2023-04-28T13:07:47.075Z,99558.83
2023-04-28T13:10:13.913Z,99565.56
2023-04-28T13:12:41.039Z,99557.43
2023-04-28T13:15:08.582Z,99551.67
2023-04-28T13:17:35.654Z,99553.39
2023-04-28T13:20:03.479Z,99558.78
2023-04-28T13:22:30.834Z,99553.70
2023-04-28T13:24:57.875Z,99550.64
2023-04-28T13:27:29.855Z,99560.37
2023-04-28T13:29:58.657Z,99559.23
2023-04-28T13:32:27.382Z,99562.86
2023-04-28T13:34:54.231Z,99563.59
2023-04-28T13:37:21.049Z,99555.96
2023-04-28T13:39:48.287Z,99566.56
2023-04-28T13:42:15.630Z,99563.18
2023-04-28T13:44:42.641Z,99562.60
2023-04-28T13:47:10.520Z,99569.17
2023-04-28T13:49:39.162Z,99568.10
2023-04-28T13:52:06.147Z,99565.77
2023-04-28T13:54:33.119Z,99563.20
2023-04-28T13:57:00.740Z,99563.77
2023-04-28T13:59:27.420Z,99560.48
2023-04-28T14:01:54.157Z,99561.90
2023-04-28T14:04:21.208Z,99559.61
2023-04-28T14:06:49.985Z,99561.67
2023-04-28T14:09:16.897Z,99556.30
2023-04-28T14:11:45.915Z,99541.25
2023-04-28T14:14:13.491Z,99544.65
2023-04-28T14:16:40.454Z,99550.85
2023-04-28T14:19:07.995Z,99548.52
2023-04-28T14:21:36.277Z,99550.81
2023-04-28T14:24:03.475Z,99552.95
2023-04-28T14:26:30.276Z,99548.98
2023-04-28T14:28:57.374Z,99552.61
2023-04-28T14:31:24.425Z,99550.85
2023-04-28T14:33:51.139Z,99551.08
2023-04-28T14:36:17.911Z,99546.66
2023-04-28T14:38:44.676Z,99550.11
2023-04-28T14:41:11.493Z,99551.71
2023-04-28T14:43:38.323Z,99550.04
2023-04-28T14:46:05.797Z,99549.48
2023-04-28T14:48:33.223Z,99551.01
2023-04-28T14:51:01.000Z,99548.55
2023-04-28T14:53:28.030Z,99543.48
2023-04-28T14:55:59.436Z,99546.52
2023-04-28T14:58:35.350Z,99547.75
2023-04-28T15:01:02.821Z,99552.62
2023-04-28T15:03:29.980Z,99549.51
2023-04-28T15:05:57.002Z,99548.89
2023-04-28T15:08:24.018Z,99552.96
2023-04-28T15:10:51.203Z,99553.27
2023-04-28T15:13:17.974Z,99550.55
2023-04-28T15:15:44.813Z,99548.66
2023-04-28T15:18:11.612Z,99553.73
2023-04-28T15:20:38.707Z,99551.59
2023-04-28T15:23:05.675Z,99547.95
2023-04-28T15:25:33.160Z,99554.11
2023-04-28T15:28:00.155Z,99548.05
2023-04-28T15:30:26.988Z,99542.89
2023-04-28T15:32:54.033Z,99541.91
2023-04-28T15:35:21.687Z,99540.08
2023-04-28T15:37:51.381Z,99544.64
2023-04-28T15:40:18.809Z,99545.09
2023-04-28T15:42:48.802Z,99549.67
2023-04-28T15:45:16.194Z,99543.55
2023-04-28T15:47:43.121Z,99540.59
2023-04-28T15:50:10.303Z,99543.42
2023-04-28T15:52:40.145Z,99537.98
2023-04-28T15:55:07.882Z,99538.65
2023-04-28T15:57:35.909Z,99534.41
2023-04-28T16:00:06.324Z,99534.73
2023-04-28T16:02:37.073Z,99534.75
2023-04-28T16:05:04.546Z,99538.34
2023-04-28T16:07:37.532Z,99538.89
2023-04-28T16:10:09.184Z,99540.32
2023-04-28T16:12:36.250Z,99541.73
2023-04-28T16:15:03.529Z,99542.45
2023-04-28T16:17:30.660Z,99545.23
2023-04-28T16:19:57.685Z,99548.30
2023-04-28T16:22:26.644Z,99547.15
2023-04-28T16:24:56.206Z,99546.73
2023-04-28T16:27:23.102Z,99551.96
2023-04-28T16:29:50.489Z,99555.39
2023-04-28T16:32:17.283Z,99553.97
2023-04-28T16:34:44.534Z,99556.30
2023-04-28T16:37:11.406Z,99557.08
2023-04-28T16:39:38.490Z,99558.27
2023-04-28T16:42:05.535Z,99557.98
2023-04-28T16:44:32.409Z,99558.77
2023-04-28T16:46:59.245Z,99558.81
2023-04-28T16:49:26.093Z,99559.86
2023-04-28T16:51:59.240Z,99558.48
2023-04-28T16:54:27.586Z,99558.88
2023-04-28T16:56:55.402Z,99552.67
2023-04-28T16:59:22.314Z,99552.61
2023-04-28T17:01:49.335Z,99560.08
2023-04-28T17:04:17.292Z,99558.25
2023-04-28T17:06:45.008Z,99556.38
2023-04-28T17:09:12.249Z,99556.77
2023-04-28T17:11:39.086Z,99559.35
2023-04-28T17:14:06.447Z,99557.46
2023-04-28T17:16:33.877Z,99562.52
2023-04-28T17:19:01.196Z,99568.33
2023-04-28T17:21:28.762Z,99566.80
2023-04-28T17:23:57.081Z,99565.47
2023-04-28T17:26:24.697Z,99566.28
2023-04-28T17:28:52.554Z,99568.07
2023-04-28T17:31:19.379Z,99567.80
2023-04-28T17:33:46.934Z,99563.51
2023-04-28T17:36:13.893Z,99563.52
2023-04-28T17:38:40.877Z,99568.66
2023-04-28T17:41:07.884Z,99565.98
2023-04-28T17:43:36.163Z,99566.59
2023-04-28T17:46:03.410Z,99564.81
2023-04-28T17:48:30.869Z,99569.15
2023-04-28T17:50:57.828Z,99562.58
2023-04-28T17:53:25.063Z,99565.69
2023-04-28T17:55:51.907Z,99567.36
2023-04-28T17:58:19.570Z,99569.39
2023-04-28T18:00:46.413Z,99565.72
2023-04-28T18:03:13.348Z,99569.51
2023-04-28T18:05:40.867Z,99570.11
2023-04-28T18:08:07.621Z,99574.89
2023-04-28T18:10:34.807Z,99575.95
2023-04-28T18:13:01.827Z,99579.58
2023-04-28T18:15:28.784Z,99583.35
2023-04-28T18:17:56.395Z,99577.27
2023-04-28T18:20:23.758Z,99577.48
2023-04-28T18:22:50.914Z,99579.79
2023-04-28T18:25:18.623Z,99580.30
2023-04-28T18:27:45.560Z,99580.27
2023-04-28T18:30:12.808Z,99585.42
2023-04-28T18:32:40.270Z,99582.97
2023-04-28T18:35:07.230Z,99584.20
2023-04-28T18:37:36.427Z,99587.85
2023-04-28T18:40:03.818Z,99586.32
2023-04-28T18:42:32.083Z,99586.06
2023-04-28T18:44:59.124Z,99589.89
2023-04-28T18:47:25.957Z,99588.97
2023-04-28T18:49:53.388Z,99586.58
2023-04-28T18:52:20.239Z,99589.47
2023-04-28T18:54:47.281Z,99593.49
2023-04-28T18:57:16.577Z,99592.52
2023-04-28T18:59:43.548Z,99591.10
2023-04-28T19:02:10.403Z,99590.67
2023-04-28T19:04:41.448Z,99585.58
2023-04-28T19:07:08.549Z,99583.33
2023-04-28T19:09:35.599Z,99579.64
2023-04-28T19:12:02.381Z,99577.87
2023-04-28T19:14:29.494Z,99575.89
2023-04-28T19:16:56.368Z,99577.35
2023-04-28T19:19:23.400Z,99580.64
2023-04-28T19:21:50.321Z,99579.96
2023-04-28T19:24:17.366Z,99575.61
2023-04-28T19:26:44.308Z,99574.20
2023-04-28T19:29:14.373Z,99571.29
2023-04-28T19:31:41.145Z,99574.93
2023-04-28T19:34:08.016Z,99573.73
2023-04-28T19:36:35.154Z,99575.30
2023-04-28T19:39:01.954Z,99576.86
2023-04-28T19:41:29.154Z,99575.37
2023-04-28T19:43:56.143Z,99571.70
2023-04-28T19:46:22.958Z,99571.42
2023-04-28T19:48:49.984Z,99569.86
2023-04-28T19:51:17.078Z,99572.47
2023-04-28T19:53:45.771Z,99571.90
2023-04-28T19:56:13.280Z,99571.40
2023-04-28T19:58:41.031Z,99572.13
2023-04-28T20:01:08.230Z,99575.17
2023-04-28T20:03:35.665Z,99576.23
2023-04-28T20:06:03.305Z,99575.73
2023-04-28T20:08:30.414Z,99574.98
2023-04-28T20:10:57.560Z,99575.73
2023-04-28T20:13:24.724Z,99576.73
2023-04-28T20:15:52.590Z,99577.11
2023-04-28T20:18:19.562Z,99573.17
2023-04-28T20:20:46.341Z,99575.98
2023-04-28T20:23:13.261Z,99577.69
2023-04-28T20:25:40.830Z,99577.17
2023-04-28T20:28:07.793Z,99579.91
2023-04-28T20:30:36.128Z,99582.39
2023-04-28T20:33:03.416Z,99581.74
2023-04-28T20:35:30.326Z,99582.79
2023-04-28T20:37:57.577Z,99583.49
2023-04-28T20:40:24.524Z,99585.52
2023-04-28T20:42:51.344Z,99584.27
2023-04-28T20:45:18.172Z,99580.00
2023-04-28T20:47:45.206Z,99579.40
2023-04-28T20:50:12.836Z,99575.59
2023-04-28T20:52:39.725Z,99577.49
2023-04-28T20:55:07.909Z,99578.88
2023-04-28T20:57:34.871Z,99577.93
2023-04-28T21:00:02.018Z,99579.22
2023-04-28T21:02:29.142Z,99577.24
2023-04-28T21:04:56.041Z,99578.08
2023-04-28T21:07:23.018Z,99580.50
2023-04-28T21:09:50.437Z,99580.44
2023-04-28T21:12:17.545Z,99578.11
2023-04-28T21:14:44.638Z,99576.49
2023-04-28T21:17:11.449Z,99575.64
2023-04-28T21:19:38.267Z,99577.14
2023-04-28T21:22:05.139Z,99576.52
2023-04-28T21:24:32.153Z,99577.41
2023-04-28T21:26:59.030Z,99575.81
2023-04-28T21:29:26.993Z,99574.26
2023-04-28T21:31:53.980Z,99577.91
2023-04-28T21:34:21.084Z,99576.36
2023-04-28T21:36:47.928Z,99577.06
2023-04-28T21:39:14.985Z,99580.23
2023-04-28T21:41:42.290Z,99576.10
2023-04-28T21:44:09.137Z,99572.88
2023-04-28T21:46:36.499Z,99573.37
2023-04-28T21:49:03.469Z,99571.61
2023-04-28T21:51:32.076Z,99567.91
2023-04-28T21:53:58.884Z,99574.46
2023-04-28T21:56:25.935Z,99570.61
2023-04-28T21:58:52.879Z,99569.39
2023-04-28T22:01:19.779Z,99568.23
2023-04-28T22:03:47.185Z,99570.14
2023-04-28T22:06:14.198Z,99569.09
2023-04-28T22:08:41.102Z,99564.85
2023-04-28T22:11:09.033Z,99557.01
2023-04-28T22:13:36.595Z,99560.98
2023-04-28T22:16:04.146Z,99559.52
2023-04-28T22:18:31.208Z,99558.27
2023-04-28T22:20:58.074Z,99553.17
2023-04-28T22:23:24.962Z,99557.92
2023-04-28T22:25:51.986Z,99554.98
2023-04-28T22:28:18.878Z,99549.46
2023-04-28T22:30:47.047Z,99546.91
2023-04-28T22:33:13.902Z,99548.14
2023-04-28T22:35:40.774Z,99548.52
2023-04-28T22:38:07.521Z,99545.86
2023-04-28T22:40:34.526Z,99543.63
2023-04-28T22:43:01.307Z,99545.83
2023-04-28T22:45:28.134Z,99547.11
2023-04-28T22:47:55.738Z,99546.05
2023-04-28T22:50:23.221Z,99544.50
2023-04-28T22:52:49.960Z,99542.11
2023-04-28T22:55:18.845Z,99538.10
2023-04-28T22:57:45.804Z,99535.34
2023-04-28T23:00:15.508Z,99537.52
2023-04-28T23:02:42.677Z,99533.25
2023-04-28T23:05:10.204Z,99533.85
2023-04-28T23:07:37.560Z,99528.05
2023-04-28T23:10:06.351Z,99523.80
2023-04-28T23:12:33.575Z,99520.56
2023-04-28T23:15:00.667Z,99518.59
2023-04-28T23:17:28.211Z,99519.52
2023-04-28T23:19:55.356Z,99521.77
2023-04-28T23:22:22.256Z,99521.19
2023-04-28T23:24:49.256Z,99518.27
2023-04-28T23:27:16.087Z,99517.21
2023-04-28T23:29:42.927Z,99515.20
2023-04-28T23:32:10.398Z,99510.28
2023-04-28T23:34:38.407Z,99513.27
2023-04-28T23:37:06.016Z,99517.89
2023-04-28T23:39:33.312Z,99514.41
2023-04-28T23:42:01.189Z,99519.18
2023-04-28T23:44:28.088Z,99517.17
2023-04-28T23:46:56.197Z,99517.01
2023-04-28T23:49:23.601Z,99518.35
2023-04-28T23:51:50.547Z,99515.92
2023-04-28T23:54:17.352Z,99512.94
2023-04-28T23:56:44.084Z,99517.02
2023-04-28T23:59:10.863Z,99517.89
